M. Luther — WDC7372 — position and weather

sailwx.info

Track history (hours):
 
Tides and Currents Weather Stations Pressure Air Temp Water Temp Dewpoint Dewpoint Depression Visibility Wind Speed Wind Dir Waves Ship Positions

M. Luther

Owner: Salmon Bay Barge Line, Inc., Seattle, WA. More information available from US FCC via Universal Licensing System and Coast Guard Vessel Documentation Center.

Last reported at 2015-Mar-02 20:19 UTC. Time now 2015-Mar-03 16:37 UTC.
Position N 47°33' W 122°21'.

Length 28 m; draft 4.1 m.

Type: Tug. MMSI: 367070410.

Date/timePositionNaut miles runAvg speedWind from/ knotsBaromVisibWave heightAir tempDewpointWater temp
2015-Mar-02 20:19N 47°33' W 122°21'0 0.0
2015-Mar-02 20:16N 47°33' W 122°21'0 0.0
2015-Mar-02 19:13N 47°33' W 122°21'0 0.0
2015-Mar-02 19:10N 47°33' W 122°21'0 0.0
2015-Mar-02 18:31N 47°33' W 122°21'0 0.0
2015-Mar-02 18:31N 47°33' W 122°21'0 0.0
2015-Mar-02 16:49N 47°33' W 122°21'0 0.0
2015-Mar-02 16:31N 47°33' W 122°21'0 0.0
2015-Mar-02 16:04N 47°33' W 122°21'0 0.0
2015-Mar-02 14:37N 47°33' W 122°21'0 0.0
2015-Mar-02 14:25N 47°33' W 122°21'0 0.0
2015-Mar-02 13:31N 47°33' W 122°21'0 0.0
2015-Mar-02 12:51N 47°33' W 122°21'0 0.0
2015-Mar-02 12:13N 47°33' W 122°21'0 0.0
2015-Mar-02 12:00N 47°33' W 122°21'0 0.0
2015-Mar-02 11:25N 47°33' W 122°21'0 0.0
2015-Mar-02 10:25N 47°33' W 122°21'0 0.0
2015-Mar-02 09:22N 47°33' W 122°21'0 0.0
2015-Mar-02 09:15N 47°33' W 122°21'0 0.0
2015-Mar-02 08:31N 47°33' W 122°21'0 0.0
2015-Mar-02 08:30N 47°33' W 122°21'0 0.0
2015-Mar-02 07:31N 47°33' W 122°21'0 0.0
2015-Mar-02 07:30N 47°33' W 122°21'0 0.0
2015-Mar-02 07:00N 47°33' W 122°21'0 0.0
2015-Mar-02 06:31N 47°33' W 122°21'0 0.0
2015-Mar-02 05:25N 47°33' W 122°21'0 0.0
2015-Mar-02 05:24N 47°33' W 122°21'0 0.0
2015-Mar-02 04:25N 47°33' W 122°21'0 0.0
2015-Mar-02 04:24N 47°33' W 122°21'0 0.0
2015-Mar-02 03:24N 47°33' W 122°21'0 0.0
2015-Mar-02 03:24N 47°33' W 122°21'0 0.0
2015-Mar-02 02:24N 47°33' W 122°21'0 0.0
2015-Mar-02 02:24N 47°33' W 122°21'0 0.0
2015-Mar-01 20:33N 47°33' W 122°21'0 0.0
2015-Mar-01 20:15N 47°33' W 122°21'0 0.0
2015-Mar-01 19:16N 47°33' W 122°21'0 0.0
2015-Mar-01 16:36N 47°33' W 122°21'0 0.0
2015-Mar-01 14:09N 47°33' W 122°21'0 0.0
2015-Mar-01 13:09N 47°33' W 122°21'0 0.0
2015-Mar-01 10:27N 47°33' W 122°21'0 0.0
2015-Mar-01 04:09N 47°33' W 122°21'0 0.0
2015-Mar-01 02:24N 47°33' W 122°21'0 0.0
2015-Mar-01 00:57N 47°33' W 122°21'0 0.0
2015-Feb-28 20:09N 47°33' W 122°21'0 1.1
2015-Feb-28 20:02N 47°33' W 122°21'0 0.0
2015-Feb-28 17:12N 47°33' W 122°21'0 0.0
2015-Feb-28 15:27N 47°33' W 122°21'0 0.0
2015-Feb-28 15:15N 47°33' W 122°21'0 0.0
2015-Feb-28 11:59N 47°33' W 122°21'0 0.0
2015-Feb-28 04:38N 47°33' W 122°21'0 0.0
2015-Feb-28 01:32N 47°33' W 122°21'0 0.0
2015-Feb-27 18:59N 47°33' W 122°21'0 0.0
2015-Feb-27 16:43N 47°33' W 122°21'0 0.0
2015-Feb-27 16:13N 47°33' W 122°21'0 0.0
2015-Feb-27 16:13N 47°33' W 122°21'0 0.0
2015-Feb-27 15:13N 47°33' W 122°21'0 0.0
2015-Feb-27 15:13N 47°33' W 122°21'0 0.0
2015-Feb-27 14:31N 47°33' W 122°21'0 0.0
2015-Feb-27 14:13N 47°33' W 122°21'0 0.0
2015-Feb-27 13:31N 47°33' W 122°21'0 0.0
2015-Feb-27 13:13N 47°33' W 122°21'0 0.0
2015-Feb-27 12:13N 47°33' W 122°21'0 0.0
2015-Feb-27 12:07N 47°33' W 122°21'0 0.0
2015-Feb-27 09:07N 47°33' W 122°21'0 0.0
2015-Feb-27 09:01N 47°33' W 122°21'0 0.0
2015-Feb-27 08:25N 47°33' W 122°21'0 0.1
2015-Feb-27 07:28N 47°33' W 122°21'0 5.1
2015-Feb-27 07:27N 47°33' W 122°21'2 2.9
2015-Feb-27 06:36N 47°36' W 122°22'0 5.7
2015-Feb-27 06:33N 47°36' W 122°22'4 3.8
2015-Feb-27 05:33N 47°38' W 122°27'1 7.1
2015-Feb-27 05:26N 47°39' W 122°28'6 6.9
2015-Feb-27 04:33N 47°45' W 122°27'3 7.4
2015-Feb-27 04:11N 47°47' W 122°28'5 7.3
2015-Feb-27 03:33N 47°52' W 122°29'1 7.1
2015-Feb-27 03:25N 47°53' W 122°30'6 7.1
2015-Feb-27 02:33N 47°58' W 122°35'6 6.3
2015-Feb-27 01:33N 48°03' W 122°40'6 5.5
2015-Feb-27 00:32N 48°08' W 122°43'4 4.4
2015-Feb-26 23:32N 48°12' W 122°48'8 5.8
2015-Feb-26 22:08N 48°20' W 122°47'5 8.1
2015-Feb-26 21:33N 48°24' W 122°45'9 8.6
2015-Feb-26 20:33N 48°33' W 122°45'8 7.9
2015-Feb-26 19:33N 48°41' W 122°44'7 7.1
2015-Feb-26 18:31N 48°46' W 122°51'7 7.1
2015-Feb-26 17:34N 48°50' W 122°60'7 6.7
2015-Feb-26 16:33N 48°54' W 123°08'7 6.7
2015-Feb-26 15:33N 48°59' W 123°15'6 6.5
2015-Feb-26 14:33N 49°04' W 123°20'5 5.0
2015-Feb-26 13:33N 49°08' W 123°15'5 5.4
2015-Feb-26 12:34N 49°07' W 123°07'4 3.6
2015-Feb-26 11:33N 49°09' W 123°02'0 0.0
2015-Feb-26 10:33N 49°09' W 123°02'0 0.0
2015-Feb-26 09:33N 49°09' W 123°02'0 0.0
2015-Feb-26 08:30N 49°09' W 123°02'0 0.0
2015-Feb-26 07:30N 49°09' W 123°02'0 0.0
2015-Feb-26 06:33N 49°09' W 123°02'0 0.0
2015-Feb-26 05:33N 49°09' W 123°02'0 0.0
2015-Feb-26 04:30N 49°09' W 123°02'0 0.0
2015-Feb-26 03:33N 49°09' W 123°02'0 0.0
2015-Feb-26 02:33N 49°09' W 123°02'0 0.0
2015-Feb-26 01:33N 49°09' W 123°02'0 0.0
2015-Feb-26 00:33N 49°09' W 123°02'0 0.0
2015-Feb-25 23:33N 49°09' W 123°02'0 0.0
2015-Feb-25 22:33N 49°09' W 123°02'0 0.0
2015-Feb-25 21:32N 49°09' W 123°02'0 0.0
2015-Feb-25 20:32N 49°09' W 123°02'0 0.0
2015-Feb-25 19:32N 49°09' W 123°02'0 0.0
2015-Feb-25 18:32N 49°09' W 123°02'0 0.0
2015-Feb-25 17:32N 49°09' W 123°02'0 0.0
2015-Feb-25 16:32N 49°09' W 123°02'0 0.0
2015-Feb-25 15:32N 49°09' W 123°02'0 0.0
2015-Feb-25 14:32N 49°09' W 123°02'4 3.9
2015-Feb-25 13:33N 49°07' W 123°07'5 4.9
2015-Feb-25 12:33N 49°08' W 123°14'5 4.7
2015-Feb-25 11:33N 49°05' W 123°20'4 3.9
2015-Feb-25 10:33N 49°02' W 123°16'4 3.7
2015-Feb-25 09:33N 48°59' W 123°12'3 3.0
2015-Feb-25 08:29N 48°57' W 123°08'3 2.9
2015-Feb-25 07:33N 48°55' W 123°05'4 4.1
2015-Feb-25 06:32N 48°53' W 123°00'5 4.7
2015-Feb-25 05:34N 48°50' W 122°55'7 6.7
2015-Feb-25 04:33N 48°46' W 122°46'8 8.0
2015-Feb-25 03:33N 48°38' W 122°44'9 9.0
2015-Feb-25 02:33N 48°29' W 122°44'8 7.6
2015-Feb-25 01:32N 48°21' W 122°45'7 6.8
2015-Feb-25 00:27N 48°14' W 122°48'8 7.9
2015-Feb-24 23:27N 48°08' W 122°40'9 9.4
2015-Feb-24 22:32N 47°60' W 122°36'3 9.3
2015-Feb-24 22:12N 47°57' W 122°33'5 8.3
2015-Feb-24 21:33N 47°53' W 122°28'0 9.1
2015-Feb-24 21:32N 47°53' W 122°28'8 8.4
2015-Feb-24 20:33N 47°45' W 122°26'0 8.9
2015-Feb-24 20:33N 47°45' W 122°26'8 7.7
2015-Feb-24 19:30N 47°37' W 122°24'1 6.4
2015-Feb-24 19:17N 47°36' W 122°22'  
2015-Feb-21 11:50N 47°33' W 122°21'0 0.1
2015-Feb-21 11:29N 47°33' W 122°21'0 0.0
2015-Feb-21 11:20N 47°33' W 122°21'1 1.5
2015-Feb-21 10:33N 47°34' W 122°21'0 3.4
2015-Feb-21 10:30N 47°34' W 122°21'1 1.3
2015-Feb-21 09:33N 47°33' W 122°21'0 0.1
2015-Feb-21 08:35N 47°33' W 122°21'0 0.0
2015-Feb-21 08:26N 47°33' W 122°21'0 0.0
2015-Feb-21 08:05N 47°33' W 122°21'0 0.0
2015-Feb-21 07:32N 47°33' W 122°21'0 0.0
2015-Feb-21 07:19N 47°33' W 122°21'0 0.0
2015-Feb-21 07:04N 47°33' W 122°21'0 0.0
2015-Feb-21 06:32N 47°33' W 122°21'0 0.0
2015-Feb-21 05:32N 47°33' W 122°21'0 0.1
2015-Feb-21 05:28N 47°33' W 122°21'0 0.0
2015-Feb-21 04:32N 47°33' W 122°21'0 0.0
2015-Feb-21 04:28N 47°33' W 122°21'0 0.0
2015-Feb-21 03:29N 47°33' W 122°21'0 0.0
2015-Feb-21 03:28N 47°33' W 122°21'0 0.0
2015-Feb-21 02:25N 47°33' W 122°21'0 0.0
2015-Feb-21 01:22N 47°33' W 122°21'0 0.0
2015-Feb-21 00:19N 47°33' W 122°21'0 0.0
2015-Feb-20 23:31N 47°33' W 122°21'0 0.0
2015-Feb-20 22:28N 47°33' W 122°21'0 0.0
2015-Feb-20 22:28N 47°33' W 122°21'  
Track history (hours):
 
Tides and Currents Weather Stations Pressure Air Temp Water Temp Dewpoint Dewpoint Depression Visibility Wind Speed Wind Dir Waves Ship Positions

M. Luther

Owner: Salmon Bay Barge Line, Inc., Seattle, WA. More information available from US FCC via Universal Licensing System and Coast Guard Vessel Documentation Center.

Last reported at 2015-Mar-02 20:19 UTC. Time now 2015-Mar-03 16:37 UTC.
Position N 47°33' W 122°21'.

Length 28 m; draft 4.1 m.

Type: Tug. MMSI: 367070410.

Date/timePositionNaut miles runAvg speedWind from/ knotsBaromVisibWave heightAir tempDewpointWater temp
2015-Mar-02 20:19N 47°33' W 122°21'0 0.0
2015-Mar-02 20:16N 47°33' W 122°21'0 0.0
2015-Mar-02 19:13N 47°33' W 122°21'0 0.0
2015-Mar-02 19:10N 47°33' W 122°21'0 0.0
2015-Mar-02 18:31N 47°33' W 122°21'0 0.0
2015-Mar-02 18:31N 47°33' W 122°21'0 0.0
2015-Mar-02 16:49N 47°33' W 122°21'0 0.0
2015-Mar-02 16:31N 47°33' W 122°21'0 0.0
2015-Mar-02 16:04N 47°33' W 122°21'0 0.0
2015-Mar-02 14:37N 47°33' W 122°21'0 0.0
2015-Mar-02 14:25N 47°33' W 122°21'0 0.0
2015-Mar-02 13:31N 47°33' W 122°21'0 0.0
2015-Mar-02 12:51N 47°33' W 122°21'0 0.0
2015-Mar-02 12:13N 47°33' W 122°21'0 0.0
2015-Mar-02 12:00N 47°33' W 122°21'0 0.0
2015-Mar-02 11:25N 47°33' W 122°21'0 0.0
2015-Mar-02 10:25N 47°33' W 122°21'0 0.0
2015-Mar-02 09:22N 47°33' W 122°21'0 0.0
2015-Mar-02 09:15N 47°33' W 122°21'0 0.0
2015-Mar-02 08:31N 47°33' W 122°21'0 0.0
2015-Mar-02 08:30N 47°33' W 122°21'0 0.0
2015-Mar-02 07:31N 47°33' W 122°21'0 0.0
2015-Mar-02 07:30N 47°33' W 122°21'0 0.0
2015-Mar-02 07:00N 47°33' W 122°21'0 0.0
2015-Mar-02 06:31N 47°33' W 122°21'0 0.0
2015-Mar-02 05:25N 47°33' W 122°21'0 0.0
2015-Mar-02 05:24N 47°33' W 122°21'0 0.0
2015-Mar-02 04:25N 47°33' W 122°21'0 0.0
2015-Mar-02 04:24N 47°33' W 122°21'0 0.0
2015-Mar-02 03:24N 47°33' W 122°21'0 0.0
2015-Mar-02 03:24N 47°33' W 122°21'0 0.0
2015-Mar-02 02:24N 47°33' W 122°21'0 0.0
2015-Mar-02 02:24N 47°33' W 122°21'0 0.0
2015-Mar-01 20:33N 47°33' W 122°21'0 0.0
2015-Mar-01 20:15N 47°33' W 122°21'0 0.0
2015-Mar-01 19:16N 47°33' W 122°21'0 0.0
2015-Mar-01 16:36N 47°33' W 122°21'0 0.0
2015-Mar-01 14:09N 47°33' W 122°21'0 0.0
2015-Mar-01 13:09N 47°33' W 122°21'0 0.0
2015-Mar-01 10:27N 47°33' W 122°21'0 0.0
2015-Mar-01 04:09N 47°33' W 122°21'0 0.0
2015-Mar-01 02:24N 47°33' W 122°21'0 0.0
2015-Mar-01 00:57N 47°33' W 122°21'0 0.0
2015-Feb-28 20:09N 47°33' W 122°21'0 1.1
2015-Feb-28 20:02N 47°33' W 122°21'0 0.0
2015-Feb-28 17:12N 47°33' W 122°21'0 0.0
2015-Feb-28 15:27N 47°33' W 122°21'0 0.0
2015-Feb-28 15:15N 47°33' W 122°21'0 0.0
2015-Feb-28 11:59N 47°33' W 122°21'0 0.0
2015-Feb-28 04:38N 47°33' W 122°21'0 0.0
2015-Feb-28 01:32N 47°33' W 122°21'0 0.0
2015-Feb-27 18:59N 47°33' W 122°21'0 0.0
2015-Feb-27 16:43N 47°33' W 122°21'0 0.0
2015-Feb-27 16:13N 47°33' W 122°21'0 0.0
2015-Feb-27 16:13N 47°33' W 122°21'0 0.0
2015-Feb-27 15:13N 47°33' W 122°21'0 0.0
2015-Feb-27 15:13N 47°33' W 122°21'0 0.0
2015-Feb-27 14:31N 47°33' W 122°21'0 0.0
2015-Feb-27 14:13N 47°33' W 122°21'0 0.0
2015-Feb-27 13:31N 47°33' W 122°21'0 0.0
2015-Feb-27 13:13N 47°33' W 122°21'0 0.0
2015-Feb-27 12:13N 47°33' W 122°21'0 0.0
2015-Feb-27 12:07N 47°33' W 122°21'0 0.0
2015-Feb-27 09:07N 47°33' W 122°21'0 0.0
2015-Feb-27 09:01N 47°33' W 122°21'0 0.0
2015-Feb-27 08:25N 47°33' W 122°21'0 0.1
2015-Feb-27 07:28N 47°33' W 122°21'0 5.1
2015-Feb-27 07:27N 47°33' W 122°21'2 2.9
2015-Feb-27 06:36N 47°36' W 122°22'0 5.7
2015-Feb-27 06:33N 47°36' W 122°22'4 3.8
2015-Feb-27 05:33N 47°38' W 122°27'1 7.1
2015-Feb-27 05:26N 47°39' W 122°28'6 6.9
2015-Feb-27 04:33N 47°45' W 122°27'3 7.4
2015-Feb-27 04:11N 47°47' W 122°28'5 7.3
2015-Feb-27 03:33N 47°52' W 122°29'1 7.1
2015-Feb-27 03:25N 47°53' W 122°30'6 7.1
2015-Feb-27 02:33N 47°58' W 122°35'6 6.3
2015-Feb-27 01:33N 48°03' W 122°40'6 5.5
2015-Feb-27 00:32N 48°08' W 122°43'4 4.4
2015-Feb-26 23:32N 48°12' W 122°48'8 5.8
2015-Feb-26 22:08N 48°20' W 122°47'5 8.1
2015-Feb-26 21:33N 48°24' W 122°45'9 8.6
2015-Feb-26 20:33N 48°33' W 122°45'8 7.9
2015-Feb-26 19:33N 48°41' W 122°44'7 7.1
2015-Feb-26 18:31N 48°46' W 122°51'7 7.1
2015-Feb-26 17:34N 48°50' W 122°60'7 6.7
2015-Feb-26 16:33N 48°54' W 123°08'7 6.7
2015-Feb-26 15:33N 48°59' W 123°15'6 6.5
2015-Feb-26 14:33N 49°04' W 123°20'5 5.0
2015-Feb-26 13:33N 49°08' W 123°15'5 5.4
2015-Feb-26 12:34N 49°07' W 123°07'4 3.6
2015-Feb-26 11:33N 49°09' W 123°02'0 0.0
2015-Feb-26 10:33N 49°09' W 123°02'0 0.0
2015-Feb-26 09:33N 49°09' W 123°02'0 0.0
2015-Feb-26 08:30N 49°09' W 123°02'0 0.0
2015-Feb-26 07:30N 49°09' W 123°02'0 0.0
2015-Feb-26 06:33N 49°09' W 123°02'0 0.0
2015-Feb-26 05:33N 49°09' W 123°02'0 0.0
2015-Feb-26 04:30N 49°09' W 123°02'0 0.0
2015-Feb-26 03:33N 49°09' W 123°02'0 0.0
2015-Feb-26 02:33N 49°09' W 123°02'0 0.0
2015-Feb-26 01:33N 49°09' W 123°02'0 0.0
2015-Feb-26 00:33N 49°09' W 123°02'0 0.0
2015-Feb-25 23:33N 49°09' W 123°02'0 0.0
2015-Feb-25 22:33N 49°09' W 123°02'0 0.0
2015-Feb-25 21:32N 49°09' W 123°02'0 0.0
2015-Feb-25 20:32N 49°09' W 123°02'0 0.0
2015-Feb-25 19:32N 49°09' W 123°02'0 0.0
2015-Feb-25 18:32N 49°09' W 123°02'0 0.0
2015-Feb-25 17:32N 49°09' W 123°02'0 0.0
2015-Feb-25 16:32N 49°09' W 123°02'0 0.0
2015-Feb-25 15:32N 49°09' W 123°02'0 0.0
2015-Feb-25 14:32N 49°09' W 123°02'4 3.9
2015-Feb-25 13:33N 49°07' W 123°07'5 4.9
2015-Feb-25 12:33N 49°08' W 123°14'5 4.7
2015-Feb-25 11:33N 49°05' W 123°20'4 3.9
2015-Feb-25 10:33N 49°02' W 123°16'4 3.7
2015-Feb-25 09:33N 48°59' W 123°12'3 3.0
2015-Feb-25 08:29N 48°57' W 123°08'3 2.9
2015-Feb-25 07:33N 48°55' W 123°05'4 4.1
2015-Feb-25 06:32N 48°53' W 123°00'5 4.7
2015-Feb-25 05:34N 48°50' W 122°55'7 6.7
2015-Feb-25 04:33N 48°46' W 122°46'8 8.0
2015-Feb-25 03:33N 48°38' W 122°44'9 9.0
2015-Feb-25 02:33N 48°29' W 122°44'8 7.6
2015-Feb-25 01:32N 48°21' W 122°45'7 6.8
2015-Feb-25 00:27N 48°14' W 122°48'8 7.9
2015-Feb-24 23:27N 48°08' W 122°40'9 9.4
2015-Feb-24 22:32N 47°60' W 122°36'3 9.3
2015-Feb-24 22:12N 47°57' W 122°33'5 8.3
2015-Feb-24 21:33N 47°53' W 122°28'0 9.1
2015-Feb-24 21:32N 47°53' W 122°28'8 8.4
2015-Feb-24 20:33N 47°45' W 122°26'0 8.9
2015-Feb-24 20:33N 47°45' W 122°26'8 7.7
2015-Feb-24 19:30N 47°37' W 122°24'1 6.4
2015-Feb-24 19:17N 47°36' W 122°22'  
2015-Feb-21 11:50N 47°33' W 122°21'0 0.1
2015-Feb-21 11:29N 47°33' W 122°21'0 0.0
2015-Feb-21 11:20N 47°33' W 122°21'1 1.5
2015-Feb-21 10:33N 47°34' W 122°21'0 3.4
2015-Feb-21 10:30N 47°34' W 122°21'1 1.3
2015-Feb-21 09:33N 47°33' W 122°21'0 0.1
2015-Feb-21 08:35N 47°33' W 122°21'0 0.0
2015-Feb-21 08:26N 47°33' W 122°21'0 0.0
2015-Feb-21 08:05N 47°33' W 122°21'0 0.0
2015-Feb-21 07:32N 47°33' W 122°21'0 0.0
2015-Feb-21 07:19N 47°33' W 122°21'0 0.0
2015-Feb-21 07:04N 47°33' W 122°21'0 0.0
2015-Feb-21 06:32N 47°33' W 122°21'0 0.0
2015-Feb-21 05:32N 47°33' W 122°21'0 0.1
2015-Feb-21 05:28N 47°33' W 122°21'0 0.0
2015-Feb-21 04:32N 47°33' W 122°21'0 0.0
2015-Feb-21 04:28N 47°33' W 122°21'0 0.0
2015-Feb-21 03:29N 47°33' W 122°21'0 0.0
2015-Feb-21 03:28N 47°33' W 122°21'0 0.0
2015-Feb-21 02:25N 47°33' W 122°21'0 0.0
2015-Feb-21 01:22N 47°33' W 122°21'0 0.0
2015-Feb-21 00:19N 47°33' W 122°21'0 0.0
2015-Feb-20 23:31N 47°33' W 122°21'0 0.0
2015-Feb-20 22:28N 47°33' W 122°21'0 0.0
2015-Feb-20 22:28N 47°33' W 122°21'  

Dump ship's entire track history